createdAt,value
2023-05-02T00:00:03.962Z,869.34
2023-05-02T00:01:03.995Z,868.10
2023-05-02T00:02:04.000Z,867.50
2023-05-02T00:03:04.100Z,866.73
2023-05-02T00:04:04.008Z,865.91
2023-05-02T00:05:03.897Z,864.90
2023-05-02T00:06:03.927Z,864.64
2023-05-02T00:07:03.873Z,864.45
2023-05-02T00:08:03.887Z,862.87
2023-05-02T00:09:03.845Z,863.06
2023-05-02T00:10:06.712Z,862.78
2023-05-02T00:11:03.855Z,862.85
2023-05-02T00:12:03.853Z,862.41
2023-05-02T00:13:03.799Z,861.43
2023-05-02T00:14:03.813Z,860.63
2023-05-02T00:15:03.795Z,860.35
2023-05-02T00:16:03.832Z,859.95
2023-05-02T00:17:03.821Z,859.13
2023-05-02T00:18:03.773Z,858.50
2023-05-02T00:19:03.757Z,857.61
2023-05-02T00:20:03.744Z,856.86
2023-05-02T00:21:03.740Z,856.27
2023-05-02T00:22:03.726Z,855.97
2023-05-02T00:23:03.722Z,855.52
2023-05-02T00:24:03.700Z,855.41
2023-05-02T00:25:03.665Z,855.22
2023-05-02T00:26:03.660Z,854.82
2023-05-02T00:27:03.676Z,854.96
2023-05-02T00:28:03.631Z,855.49
2023-05-02T00:29:03.619Z,855.41
2023-05-02T00:30:03.814Z,855.03
2023-05-02T00:31:03.666Z,854.49
2023-05-02T00:32:03.918Z,854.38
2023-05-02T00:33:03.605Z,854.14
2023-05-02T00:34:03.687Z,854.69
2023-05-02T00:35:03.906Z,854.51
2023-05-02T00:36:03.577Z,854.60
2023-05-02T00:37:03.533Z,853.37
2023-05-02T00:38:03.537Z,852.82
2023-05-02T00:39:03.537Z,851.88
2023-05-02T00:40:04.236Z,851.45
2023-05-02T00:41:03.513Z,851.00
2023-05-02T00:42:03.881Z,850.64
2023-05-02T00:43:03.475Z,849.55
2023-05-02T00:44:06.346Z,848.39
2023-05-02T00:45:03.431Z,847.28
2023-05-02T00:46:03.480Z,846.41
2023-05-02T00:47:03.434Z,845.29
2023-05-02T00:48:03.429Z,843.92
2023-05-02T00:49:03.444Z,842.81
2023-05-02T00:50:03.452Z,841.73
2023-05-02T00:51:03.402Z,841.35
2023-05-02T00:52:03.340Z,840.61
2023-05-02T00:53:03.447Z,840.18
2023-05-02T00:54:03.349Z,840.38
2023-05-02T00:55:03.345Z,840.37
2023-05-02T00:56:03.329Z,839.94
2023-05-02T00:57:03.322Z,839.74
2023-05-02T00:58:03.296Z,839.36
2023-05-02T00:59:03.289Z,838.80
2023-05-02T01:00:03.378Z,838.11
2023-05-02T01:01:03.278Z,837.16
2023-05-02T01:02:03.346Z,837.00
2023-05-02T01:03:03.407Z,836.41
2023-05-02T01:04:03.423Z,836.17
2023-05-02T01:05:03.213Z,836.25
2023-05-02T01:06:03.263Z,835.63
2023-05-02T01:07:03.180Z,834.58
2023-05-02T01:08:03.251Z,833.42
2023-05-02T01:09:03.182Z,831.47
2023-05-02T01:10:03.432Z,830.12
2023-05-02T01:11:03.163Z,828.99
2023-05-02T01:12:03.146Z,827.97
2023-05-02T01:13:03.127Z,826.24
2023-05-02T01:14:03.139Z,825.73
2023-05-02T01:15:03.163Z,824.30
2023-05-02T01:16:03.147Z,823.60
2023-05-02T01:17:03.076Z,823.12
2023-05-02T01:18:03.151Z,822.48
2023-05-02T01:19:03.074Z,822.17
2023-05-02T01:20:03.241Z,821.64
2023-05-02T01:21:03.055Z,820.49
2023-05-02T01:22:03.045Z,820.03
2023-05-02T01:23:03.009Z,819.30
2023-05-02T01:24:02.986Z,819.47
2023-05-02T01:25:03.053Z,819.28
2023-05-02T01:26:03.270Z,819.35
2023-05-02T01:27:02.997Z,819.12
2023-05-02T01:28:02.946Z,819.54
2023-05-02T01:29:02.956Z,819.48
2023-05-02T01:30:03.076Z,819.51
2023-05-02T01:31:02.950Z,819.98
2023-05-02T01:32:03.153Z,819.92
2023-05-02T01:33:02.942Z,819.81
2023-05-02T01:34:02.900Z,819.76
2023-05-02T01:35:02.887Z,820.09
2023-05-02T01:36:02.909Z,820.32
2023-05-02T01:37:02.853Z,820.47
2023-05-02T01:38:02.847Z,820.52
2023-05-02T01:39:02.895Z,820.48
2023-05-02T01:40:02.925Z,820.36
2023-05-02T01:41:03.136Z,821.01
2023-05-02T01:42:02.807Z,821.02
2023-05-02T01:43:02.791Z,821.07
2023-05-02T01:44:02.820Z,821.48
2023-05-02T01:45:02.783Z,821.58
2023-05-02T01:46:02.793Z,821.26
2023-05-02T01:47:02.763Z,821.28
2023-05-02T01:48:02.811Z,821.63
2023-05-02T01:49:02.728Z,822.42
2023-05-02T01:50:02.815Z,822.67
2023-05-02T01:51:02.718Z,823.04
2023-05-02T01:52:02.713Z,822.87
2023-05-02T01:53:02.698Z,822.70
2023-05-02T01:54:03.025Z,822.57
2023-05-02T01:55:03.019Z,822.76
2023-05-02T01:56:02.687Z,823.05
2023-05-02T01:57:02.947Z,823.25
2023-05-02T01:58:02.631Z,823.12
2023-05-02T01:59:02.700Z,822.73
2023-05-02T02:00:03.044Z,823.13
2023-05-02T02:01:03.083Z,823.20
2023-05-02T02:02:02.615Z,823.43
2023-05-02T02:03:02.620Z,823.38
2023-05-02T02:04:02.615Z,823.52
2023-05-02T02:05:02.638Z,823.49
2023-05-02T02:06:02.600Z,823.26
2023-05-02T02:07:02.540Z,823.66
2023-05-02T02:08:02.565Z,823.70
2023-05-02T02:09:02.516Z,824.47
2023-05-02T02:10:02.643Z,825.57
2023-05-02T02:11:02.572Z,826.59
2023-05-02T02:12:02.488Z,826.06
2023-05-02T02:13:02.490Z,825.97
2023-05-02T02:14:02.454Z,826.36
2023-05-02T02:15:02.484Z,826.53
2023-05-02T02:16:02.435Z,826.99
2023-05-02T02:17:03.309Z,827.28
2023-05-02T02:18:02.442Z,827.94
2023-05-02T02:19:02.393Z,828.95
2023-05-02T02:20:02.513Z,829.03
2023-05-02T02:21:02.422Z,828.90
2023-05-02T02:22:02.358Z,828.80
2023-05-02T02:23:02.373Z,829.07
2023-05-02T02:24:02.373Z,829.04
2023-05-02T02:25:02.348Z,829.36
2023-05-02T02:26:02.335Z,829.38
2023-05-02T02:27:02.315Z,829.61
2023-05-02T02:28:02.332Z,830.16
2023-05-02T02:29:02.291Z,830.11
2023-05-02T02:30:02.631Z,829.85
2023-05-02T02:31:02.315Z,830.03
2023-05-02T02:32:02.260Z,830.47
2023-05-02T02:33:02.253Z,831.49
2023-05-02T02:34:02.220Z,832.06
2023-05-02T02:35:02.217Z,831.99
2023-05-02T02:36:02.212Z,831.94
2023-05-02T02:37:02.222Z,832.37
2023-05-02T02:38:02.227Z,832.80
2023-05-02T02:39:04.959Z,833.55
2023-05-02T02:40:02.550Z,834.40
2023-05-02T02:41:02.229Z,834.93
2023-05-02T02:42:02.139Z,834.62
2023-05-02T02:43:02.181Z,834.22
2023-05-02T02:44:02.129Z,833.33
2023-05-02T02:45:03.346Z,833.26
2023-05-02T02:46:02.193Z,834.25
2023-05-02T02:47:02.258Z,834.96
2023-05-02T02:48:02.190Z,835.06
2023-05-02T02:49:02.067Z,835.51
2023-05-02T02:50:02.387Z,837.27
2023-05-02T02:51:02.056Z,837.31
2023-05-02T02:52:02.046Z,836.34
2023-05-02T02:53:02.023Z,835.19
2023-05-02T02:54:03.235Z,835.11
2023-05-02T02:55:02.014Z,835.31
2023-05-02T02:56:01.997Z,835.80
2023-05-02T02:57:01.977Z,837.73
2023-05-02T02:58:01.984Z,839.10
2023-05-02T02:59:02.250Z,840.11
2023-05-02T03:00:02.347Z,840.94
2023-05-02T03:01:01.945Z,841.30
2023-05-02T03:02:02.061Z,840.69
2023-05-02T03:03:02.003Z,840.60
2023-05-02T03:04:01.965Z,841.50
2023-05-02T03:05:01.884Z,842.42
2023-05-02T03:06:01.908Z,842.74
2023-05-02T03:07:01.874Z,842.93
2023-05-02T03:08:01.862Z,842.86
2023-05-02T03:09:01.846Z,843.33
2023-05-02T03:10:02.088Z,843.35
2023-05-02T03:11:01.830Z,843.25
2023-05-02T03:12:01.792Z,843.29
2023-05-02T03:13:01.777Z,843.49
2023-05-02T03:14:01.748Z,843.01
2023-05-02T03:15:01.792Z,843.05
2023-05-02T03:16:01.779Z,843.41
2023-05-02T03:17:01.734Z,843.65
2023-05-02T03:18:01.786Z,843.63
2023-05-02T03:19:01.734Z,843.76
2023-05-02T03:20:01.970Z,843.77
2023-05-02T03:21:01.716Z,844.09
2023-05-02T03:22:01.678Z,844.23
2023-05-02T03:23:01.995Z,844.22
2023-05-02T03:24:01.677Z,843.86
2023-05-02T03:25:01.653Z,843.13
2023-05-02T03:26:01.937Z,843.46
2023-05-02T03:27:01.646Z,843.74
2023-05-02T03:28:01.620Z,843.99
2023-05-02T03:29:01.666Z,844.47
2023-05-02T03:30:01.814Z,843.98
2023-05-02T03:31:01.672Z,844.22
2023-05-02T03:32:01.740Z,844.34
2023-05-02T03:33:01.684Z,845.22
2023-05-02T03:34:01.555Z,846.12
2023-05-02T03:35:01.545Z,846.67
2023-05-02T03:36:01.569Z,846.28
2023-05-02T03:37:01.524Z,846.89
2023-05-02T03:38:01.508Z,847.75
2023-05-02T03:39:01.517Z,848.75
2023-05-02T03:40:01.834Z,849.41
2023-05-02T03:41:01.513Z,849.75
2023-05-02T03:42:01.460Z,849.26
2023-05-02T03:43:01.446Z,848.62
2023-05-02T03:44:01.484Z,848.44
2023-05-02T03:45:01.418Z,848.62
2023-05-02T03:46:01.440Z,848.19
2023-05-02T03:47:01.467Z,847.97
2023-05-02T03:48:01.478Z,846.87
2023-05-02T03:49:01.386Z,846.28
2023-05-02T03:50:01.630Z,846.00
2023-05-02T03:51:01.383Z,846.20
2023-05-02T03:52:01.353Z,845.72
2023-05-02T03:53:01.324Z,846.12
2023-05-02T03:54:01.353Z,846.10
2023-05-02T03:55:01.315Z,848.26
2023-05-02T03:56:01.631Z,848.88
2023-05-02T03:57:01.332Z,850.38
2023-05-02T03:58:01.273Z,850.97
2023-05-02T03:59:01.320Z,850.42
2023-05-02T04:00:01.636Z,849.99
2023-05-02T04:01:01.601Z,850.44
2023-05-02T04:02:01.309Z,851.03
2023-05-02T04:03:01.265Z,851.81
2023-05-02T04:04:01.250Z,852.14
2023-05-02T04:05:01.226Z,853.05
2023-05-02T04:06:04.069Z,853.27
2023-05-02T04:07:01.182Z,854.00
2023-05-02T04:08:01.188Z,854.13
2023-05-02T04:09:01.152Z,854.00
2023-05-02T04:10:01.798Z,853.62
2023-05-02T04:11:01.238Z,853.44
2023-05-02T04:12:01.118Z,853.66
2023-05-02T04:13:01.411Z,854.68
2023-05-02T04:14:01.116Z,854.84
2023-05-02T04:15:01.083Z,854.58
2023-05-02T04:16:01.134Z,853.65
2023-05-02T04:17:01.115Z,853.50
2023-05-02T04:18:01.430Z,853.86
2023-05-02T04:19:01.035Z,854.30
2023-05-02T04:20:05.068Z,853.77
2023-05-02T04:21:01.028Z,853.60
2023-05-02T04:22:00.995Z,854.61
2023-05-02T04:23:01.007Z,855.48
2023-05-02T04:24:00.985Z,855.68
2023-05-02T04:25:00.999Z,856.11
2023-05-02T04:26:00.982Z,855.97
2023-05-02T04:27:01.281Z,855.98
2023-05-02T04:28:00.955Z,855.91
2023-05-02T04:29:00.926Z,856.33
2023-05-02T04:30:01.462Z,856.88
2023-05-02T04:31:01.045Z,856.59
2023-05-02T04:32:00.900Z,856.25
2023-05-02T04:33:00.973Z,855.68
2023-05-02T04:34:00.870Z,855.83
2023-05-02T04:35:00.871Z,855.26
2023-05-02T04:36:00.866Z,854.84
2023-05-02T04:37:00.831Z,854.29
2023-05-02T04:38:00.932Z,853.83
2023-05-02T04:39:00.811Z,853.98
2023-05-02T04:40:00.987Z,854.05
2023-05-02T04:41:00.820Z,854.15
2023-05-02T04:42:01.786Z,854.20
2023-05-02T04:43:00.767Z,854.51
2023-05-02T04:44:00.812Z,854.39
2023-05-02T04:45:00.754Z,853.90
2023-05-02T04:46:00.806Z,853.34
2023-05-02T04:47:00.746Z,853.19
2023-05-02T04:48:00.751Z,853.36
2023-05-02T04:49:00.716Z,853.81
2023-05-02T04:50:00.919Z,853.92
2023-05-02T04:51:01.014Z,853.96
2023-05-02T04:52:02.324Z,854.39
2023-05-02T04:53:00.644Z,854.36
2023-05-02T04:54:00.645Z,854.47
2023-05-02T04:55:00.636Z,854.29
2023-05-02T04:56:00.675Z,853.60
2023-05-02T04:57:00.615Z,852.58
2023-05-02T04:58:00.593Z,852.03
2023-05-02T04:59:00.572Z,851.67
2023-05-02T05:00:00.928Z,850.57
2023-05-02T05:01:00.611Z,850.59
2023-05-02T05:02:00.623Z,849.89
2023-05-02T05:03:01.736Z,849.98
2023-05-02T05:04:00.733Z,850.57
2023-05-02T05:05:00.567Z,849.74
2023-05-02T05:06:00.616Z,848.92
2023-05-02T05:07:00.790Z,848.56
2023-05-02T05:08:00.480Z,848.88
2023-05-02T05:09:00.486Z,849.26
2023-05-02T05:10:00.860Z,850.25
2023-05-02T05:11:00.457Z,850.62
2023-05-02T05:12:00.456Z,850.55
2023-05-02T05:13:00.424Z,849.56
2023-05-02T05:14:00.408Z,849.18
2023-05-02T05:15:00.421Z,849.38
2023-05-02T05:16:00.475Z,850.49
2023-05-02T05:17:00.443Z,851.34
2023-05-02T05:18:00.410Z,853.16
2023-05-02T05:19:00.361Z,855.73
2023-05-02T05:20:00.662Z,856.25
2023-05-02T05:21:00.368Z,856.68
2023-05-02T05:22:00.327Z,858.06
2023-05-02T05:23:00.400Z,857.80
2023-05-02T05:24:00.303Z,856.84
2023-05-02T05:25:00.311Z,854.69
2023-05-02T05:26:00.307Z,853.76
2023-05-02T05:27:00.290Z,855.14
2023-05-02T05:28:00.272Z,856.77
2023-05-02T05:29:02.020Z,857.17
2023-05-02T05:30:00.543Z,855.90
2023-05-02T05:31:00.258Z,853.77
2023-05-02T05:32:00.323Z,853.25
2023-05-02T05:33:00.280Z,853.82
2023-05-02T05:34:00.283Z,856.13
2023-05-02T05:35:00.190Z,857.20
2023-05-02T05:36:00.193Z,856.25
2023-05-02T05:37:00.477Z,856.24
2023-05-02T05:38:03.058Z,855.41
2023-05-02T05:39:00.129Z,854.92
2023-05-02T05:40:00.630Z,855.09
2023-05-02T05:41:00.129Z,854.20
2023-05-02T05:42:00.152Z,853.51
2023-05-02T05:43:00.136Z,853.69
2023-05-02T05:44:00.125Z,857.05
2023-05-02T05:45:00.067Z,859.60
2023-05-02T05:46:00.147Z,864.30
2023-05-02T05:47:00.169Z,865.39
2023-05-02T05:48:00.094Z,864.45
2023-05-02T05:49:00.151Z,866.66
2023-05-02T05:50:00.304Z,870.67
2023-05-02T05:51:00.059Z,871.53
2023-05-02T05:52:00.054Z,870.14
2023-05-02T05:53:00.381Z,870.16
2023-05-02T05:54:02.746Z,869.71
2023-05-02T05:54:59.990Z,870.08
2023-05-02T05:56:00.113Z,870.27
2023-05-02T05:56:59.991Z,870.63
2023-05-02T05:57:59.999Z,869.73
2023-05-02T05:58:59.978Z,866.78
2023-05-02T06:00:00.147Z,863.54
2023-05-02T06:00:59.915Z,861.44
2023-05-02T06:02:00.275Z,862.82
2023-05-02T06:02:59.943Z,864.43
2023-05-02T06:04:00.130Z,862.96
2023-05-02T06:05:00.000Z,860.56
2023-05-02T06:05:59.955Z,858.17
2023-05-02T06:07:00.004Z,859.06
2023-05-02T06:07:59.844Z,859.97
2023-05-02T06:08:59.794Z,861.16
2023-05-02T06:10:00.182Z,862.76
2023-05-02T06:10:59.814Z,863.62
2023-05-02T06:11:59.805Z,863.16
2023-05-02T06:12:59.819Z,860.13
2023-05-02T06:14:00.166Z,858.47
2023-05-02T06:14:59.748Z,857.95
2023-05-02T06:16:00.209Z,857.54
2023-05-02T06:16:59.764Z,856.70
2023-05-02T06:17:59.751Z,856.56
2023-05-02T06:18:59.727Z,857.32
2023-05-02T06:19:59.988Z,857.40
2023-05-02T06:20:59.750Z,857.73
2023-05-02T06:21:59.665Z,858.34
2023-05-02T06:22:59.636Z,859.41
2023-05-02T06:23:59.720Z,861.36
2023-05-02T06:25:00.135Z,860.99
2023-05-02T06:25:59.643Z,861.07
2023-05-02T06:26:59.618Z,861.87
2023-05-02T06:27:59.620Z,860.75
2023-05-02T06:28:59.602Z,857.29
2023-05-02T06:29:59.944Z,855.35
2023-05-02T06:30:59.787Z,853.21
2023-05-02T06:31:59.713Z,851.01
2023-05-02T06:32:59.609Z,849.45
2023-05-02T06:33:59.520Z,849.82
2023-05-02T06:34:59.538Z,851.65
2023-05-02T06:36:01.620Z,850.45
2023-05-02T06:36:59.492Z,851.52
2023-05-02T06:37:59.471Z,852.22
2023-05-02T06:38:59.470Z,852.03
2023-05-02T06:39:59.633Z,851.75
2023-05-02T06:40:59.473Z,852.10
2023-05-02T06:41:59.431Z,850.87
2023-05-02T06:42:59.750Z,852.46
2023-05-02T06:43:59.401Z,855.29
2023-05-02T06:44:59.783Z,858.29
2023-05-02T06:45:59.406Z,861.06
2023-05-02T06:46:59.470Z,863.95
2023-05-02T06:47:59.564Z,864.83
2023-05-02T06:48:59.382Z,865.05
2023-05-02T06:49:59.567Z,865.10
2023-05-02T06:50:59.650Z,864.20
2023-05-02T06:51:59.321Z,861.19
2023-05-02T06:52:59.316Z,858.99
2023-05-02T06:54:00.468Z,858.05
2023-05-02T06:54:59.289Z,859.96
2023-05-02T06:55:59.297Z,861.94
2023-05-02T06:56:59.266Z,863.04
2023-05-02T06:57:59.252Z,865.30
2023-05-02T06:58:59.250Z,868.29
2023-05-02T06:59:59.421Z,871.03
2023-05-02T07:00:59.250Z,874.42
2023-05-02T07:01:59.217Z,870.48
2023-05-02T07:02:59.208Z,865.61
2023-05-02T07:03:59.283Z,865.36
2023-05-02T07:05:01.081Z,869.94
2023-05-02T07:05:59.552Z,874.86
2023-05-02T07:06:59.157Z,879.02
2023-05-02T07:07:59.135Z,884.30
2023-05-02T07:08:59.161Z,894.94
2023-05-02T07:09:59.271Z,906.75
2023-05-02T07:10:59.121Z,911.23
2023-05-02T07:11:59.131Z,903.66
2023-05-02T07:12:59.087Z,892.82
2023-05-02T07:13:59.074Z,884.85
2023-05-02T07:14:59.078Z,882.25
2023-05-02T07:15:59.071Z,880.48
2023-05-02T07:16:59.133Z,875.18
2023-05-02T07:17:59.112Z,862.84
2023-05-02T07:18:59.009Z,857.51
2023-05-02T07:19:59.153Z,854.42
2023-05-02T07:20:59.186Z,848.23
2023-05-02T07:21:58.982Z,845.11
2023-05-02T07:22:58.975Z,845.05
2023-05-02T07:23:59.066Z,847.95
2023-05-02T07:24:58.945Z,854.31
2023-05-02T07:25:59.301Z,856.67
2023-05-02T07:26:58.942Z,858.91
2023-05-02T07:27:58.957Z,859.82
2023-05-02T07:28:58.912Z,858.38
2023-05-02T07:29:59.247Z,859.30
2023-05-02T07:30:58.896Z,861.55
2023-05-02T07:31:58.913Z,870.34
2023-05-02T07:32:59.161Z,880.72
2023-05-02T07:33:58.878Z,871.95
2023-05-02T07:34:58.849Z,868.01
2023-05-02T07:35:59.179Z,871.14
2023-05-02T07:37:01.709Z,875.36
2023-05-02T07:38:01.690Z,878.61
2023-05-02T07:38:58.874Z,878.69
2023-05-02T07:39:59.318Z,882.22
2023-05-02T07:40:58.835Z,886.59
2023-05-02T07:41:58.771Z,889.95
2023-05-02T07:42:58.793Z,889.03
2023-05-02T07:43:58.754Z,881.77
2023-05-02T07:44:58.769Z,880.84
2023-05-02T07:45:58.835Z,882.19
2023-05-02T07:46:58.708Z,887.14
2023-05-02T07:47:58.802Z,891.35
2023-05-02T07:48:58.733Z,888.80
2023-05-02T07:49:59.021Z,898.76
2023-05-02T07:50:58.695Z,925.53
2023-05-02T07:51:58.657Z,949.17
2023-05-02T07:52:58.677Z,927.90
2023-05-02T07:53:58.742Z,927.39
2023-05-02T07:54:58.636Z,934.88
2023-05-02T07:55:58.623Z,917.76
2023-05-02T07:56:58.619Z,897.16
2023-05-02T07:57:58.589Z,890.30
2023-05-02T07:58:58.581Z,898.49
2023-05-02T07:59:58.652Z,910.34
2023-05-02T08:00:58.584Z,915.72
2023-05-02T08:01:58.540Z,909.73
2023-05-02T08:02:58.566Z,914.99
2023-05-02T08:03:58.851Z,917.75
2023-05-02T08:04:58.537Z,911.83
2023-05-02T08:05:58.542Z,901.96
2023-05-02T08:06:58.525Z,898.32
2023-05-02T08:07:58.489Z,899.13
2023-05-02T08:08:58.477Z,906.01
2023-05-02T08:09:58.654Z,904.26
2023-05-02T08:10:58.474Z,912.59
2023-05-02T08:11:58.431Z,922.66
2023-05-02T08:12:58.437Z,904.18
2023-05-02T08:13:58.469Z,895.02
2023-05-02T08:14:58.388Z,896.34
2023-05-02T08:15:58.559Z,900.14
2023-05-02T08:16:58.390Z,903.20
2023-05-02T08:17:58.454Z,904.77
2023-05-02T08:18:58.358Z,893.17
2023-05-02T08:19:58.589Z,885.99
2023-05-02T08:20:58.328Z,888.39
2023-05-02T08:21:58.346Z,891.72
2023-05-02T08:23:00.063Z,889.52
2023-05-02T08:23:58.301Z,895.48
2023-05-02T08:24:58.310Z,896.16
2023-05-02T08:25:58.296Z,880.27
2023-05-02T08:26:58.274Z,874.74
2023-05-02T08:27:58.273Z,865.74
2023-05-02T08:28:58.291Z,859.03
2023-05-02T08:30:00.597Z,857.46
2023-05-02T08:30:58.255Z,858.71
2023-05-02T08:31:58.354Z,862.47
2023-05-02T08:32:58.222Z,867.49
2023-05-02T08:33:58.210Z,877.91
2023-05-02T08:34:58.193Z,895.33
2023-05-02T08:35:58.177Z,899.47
2023-05-02T08:36:58.615Z,905.55
2023-05-02T08:37:58.184Z,939.62
2023-05-02T08:38:58.161Z,980.66
2023-05-02T08:39:58.283Z,991.53
2023-05-02T08:41:00.953Z,983.11
2023-05-02T08:41:58.088Z,994.22
2023-05-02T08:43:09.441Z,1008.03
2023-05-02T08:44:06.931Z,1016.49
2023-05-02T08:45:06.482Z,1020.86
2023-05-02T08:45:58.104Z,1012.02
2023-05-02T08:46:58.082Z,999.95
2023-05-02T08:47:58.103Z,981.45
2023-05-02T08:48:58.037Z,978.70
2023-05-02T08:49:58.332Z,985.61
2023-05-02T08:50:58.046Z,962.85
2023-05-02T08:51:58.009Z,939.70
2023-05-02T08:52:58.008Z,897.24
2023-05-02T08:53:57.989Z,877.32
2023-05-02T08:54:58.131Z,860.26
2023-05-02T08:55:57.985Z,848.23
2023-05-02T08:56:57.977Z,845.27
2023-05-02T08:57:57.921Z,847.88
2023-05-02T08:58:57.933Z,857.29
2023-05-02T08:59:57.905Z,874.09
2023-05-02T09:00:58.156Z,900.54
2023-05-02T09:01:57.886Z,929.78
2023-05-02T09:02:57.902Z,913.57
2023-05-02T09:03:57.893Z,910.50
2023-05-02T09:04:58.133Z,917.77
2023-05-02T09:05:57.832Z,921.19
2023-05-02T09:06:57.841Z,929.61
2023-05-02T09:07:57.812Z,940.28
2023-05-02T09:08:57.834Z,939.59
2023-05-02T09:09:57.824Z,935.23
2023-05-02T09:10:57.781Z,928.81
2023-05-02T09:11:57.812Z,935.29
2023-05-02T09:12:57.894Z,941.52
2023-05-02T09:13:57.767Z,947.05
2023-05-02T09:14:58.050Z,945.21
2023-05-02T09:15:57.911Z,937.77
2023-05-02T09:16:57.836Z,939.45
2023-05-02T09:17:57.791Z,955.70
2023-05-02T09:18:57.693Z,964.14
2023-05-02T09:19:57.729Z,949.60
2023-05-02T09:20:57.688Z,921.63
2023-05-02T09:21:57.688Z,899.82
2023-05-02T09:22:57.657Z,887.91
2023-05-02T09:23:57.668Z,884.54
2023-05-02T09:24:58.081Z,884.20
2023-05-02T09:25:57.671Z,883.81
2023-05-02T09:26:57.642Z,888.63
2023-05-02T09:27:57.904Z,901.78
2023-05-02T09:28:57.600Z,923.84
2023-05-02T09:29:57.578Z,932.77
2023-05-02T09:30:57.641Z,921.57
2023-05-02T09:31:57.658Z,912.33
2023-05-02T09:32:57.573Z,910.95
2023-05-02T09:33:57.850Z,914.05
2023-05-02T09:34:57.831Z,923.16
2023-05-02T09:35:57.700Z,930.16
2023-05-02T09:36:57.521Z,933.95
2023-05-02T09:37:57.513Z,943.19
2023-05-02T09:38:57.516Z,951.01
2023-05-02T09:39:57.517Z,965.89
2023-05-02T09:40:57.474Z,988.00
2023-05-02T09:41:57.458Z,1014.30
2023-05-02T09:42:57.437Z,1033.50
2023-05-02T09:43:57.429Z,1040.44
2023-05-02T09:44:57.622Z,1041.66
2023-05-02T09:45:57.471Z,1040.85
2023-05-02T09:46:57.467Z,1038.64
2023-05-02T09:47:57.707Z,1035.69
2023-05-02T09:48:57.386Z,1033.89
2023-05-02T09:49:57.417Z,1032.37
2023-05-02T09:50:57.380Z,1032.56
2023-05-02T09:51:57.445Z,1030.90
2023-05-02T09:52:57.330Z,1025.23
2023-05-02T09:53:57.339Z,1016.89
2023-05-02T09:54:57.333Z,1004.37
2023-05-02T09:55:57.324Z,985.86
2023-05-02T09:56:57.331Z,959.00
2023-05-02T09:57:57.280Z,919.93
2023-05-02T09:58:59.187Z,905.92
2023-05-02T09:59:57.264Z,906.26
2023-05-02T10:00:57.253Z,882.28
2023-05-02T10:01:57.299Z,855.58
2023-05-02T10:02:57.240Z,839.68
2023-05-02T10:03:57.266Z,837.95
2023-05-02T10:04:57.236Z,848.81
2023-05-02T10:05:57.212Z,868.53
2023-05-02T10:06:57.173Z,871.53
2023-05-02T10:07:57.159Z,863.19
2023-05-02T10:08:57.163Z,856.88
2023-05-02T10:09:57.191Z,859.26
2023-05-02T10:10:57.127Z,864.69
2023-05-02T10:11:57.112Z,876.07
2023-05-02T10:12:57.099Z,891.37
2023-05-02T10:13:57.089Z,913.78
2023-05-02T10:14:57.076Z,923.10
2023-05-02T10:15:57.172Z,919.97
2023-05-02T10:16:57.070Z,904.31
2023-05-02T10:17:57.364Z,887.59
2023-05-02T10:18:57.026Z,882.55
2023-05-02T10:20:02.004Z,882.21
2023-05-02T10:20:58.044Z,880.77
2023-05-02T10:21:57.050Z,878.59
2023-05-02T10:22:56.993Z,882.95
2023-05-02T10:23:58.909Z,891.64
2023-05-02T10:24:56.999Z,907.65
2023-05-02T10:25:58.177Z,919.23
2023-05-02T10:26:57.023Z,938.91
2023-05-02T10:27:56.911Z,961.05
2023-05-02T10:28:56.934Z,974.85
2023-05-02T10:29:56.901Z,973.02
2023-05-02T10:31:06.211Z,962.35
2023-05-02T10:31:56.972Z,958.66
2023-05-02T10:33:05.278Z,964.20
2023-05-02T10:34:06.668Z,976.28
2023-05-02T10:35:08.178Z,989.91
2023-05-02T10:36:04.199Z,1005.45
2023-05-02T10:37:06.651Z,1017.35
2023-05-02T10:37:56.823Z,1025.65
2023-05-02T10:38:57.069Z,1030.08
2023-05-02T10:39:56.806Z,1030.65
2023-05-02T10:40:58.053Z,1029.93
2023-05-02T10:41:56.851Z,1028.47
2023-05-02T10:42:56.734Z,1024.83
2023-05-02T10:43:56.743Z,1024.14
2023-05-02T10:44:56.724Z,1025.34
2023-05-02T10:45:56.734Z,1022.45
2023-05-02T10:46:56.740Z,1017.00
2023-05-02T10:47:56.852Z,1012.72
2023-05-02T10:48:56.734Z,1004.99
2023-05-02T10:49:56.715Z,986.08
2023-05-02T10:50:56.656Z,962.89
2023-05-02T10:51:56.657Z,953.36
2023-05-02T10:52:56.639Z,967.24
2023-05-02T10:53:56.635Z,991.85
2023-05-02T10:54:56.643Z,1004.70
2023-05-02T10:55:56.679Z,1008.71
2023-05-02T10:56:56.612Z,1008.53
2023-05-02T10:57:56.610Z,1010.25
2023-05-02T10:58:57.388Z,1014.38
2023-05-02T10:59:56.578Z,1020.00
2023-05-02T11:00:56.618Z,1024.23
2023-05-02T11:01:56.761Z,1030.73
2023-05-02T11:02:58.427Z,1036.14
2023-05-02T11:03:56.579Z,1037.28
2023-05-02T11:04:56.540Z,1038.50
2023-05-02T11:05:56.538Z,1040.21
2023-05-02T11:07:00.665Z,1040.04
2023-05-02T11:07:56.469Z,1036.31
2023-05-02T11:08:56.459Z,1039.77
2023-05-02T11:09:56.470Z,1041.80
2023-05-02T11:10:56.446Z,1034.58
2023-05-02T11:11:56.476Z,1020.81
2023-05-02T11:12:56.421Z,1008.82
2023-05-02T11:13:56.418Z,997.16
2023-05-02T11:14:56.709Z,990.22
2023-05-02T11:15:56.401Z,998.09
2023-05-02T11:16:56.683Z,1015.46
2023-05-02T11:17:56.381Z,1027.95
2023-05-02T11:18:56.667Z,1030.35
2023-05-02T11:19:56.356Z,1028.44
2023-05-02T11:20:56.306Z,1029.98
2023-05-02T11:21:56.327Z,1031.74
2023-05-02T11:22:56.337Z,1028.24
2023-05-02T11:23:56.321Z,1022.15
2023-05-02T11:24:56.353Z,1015.80
2023-05-02T11:25:59.028Z,1016.19
2023-05-02T11:26:56.261Z,1019.72
2023-05-02T11:27:56.376Z,1026.23
2023-05-02T11:28:56.212Z,1028.36
2023-05-02T11:29:56.256Z,1025.67
2023-05-02T11:30:57.422Z,1018.16
2023-05-02T11:31:56.339Z,1012.25
2023-05-02T11:32:56.227Z,1012.47
2023-05-02T11:33:56.213Z,1007.29
2023-05-02T11:34:56.282Z,1000.24
2023-05-02T11:35:56.508Z,990.49
2023-05-02T11:36:56.205Z,982.90
2023-05-02T11:37:56.114Z,976.28
2023-05-02T11:38:56.128Z,967.84
2023-05-02T11:39:57.104Z,971.36
2023-05-02T11:40:56.122Z,978.08
2023-05-02T11:41:56.112Z,977.02
2023-05-02T11:42:57.274Z,971.69
2023-05-02T11:43:56.073Z,980.05
2023-05-02T11:44:56.046Z,989.80
2023-05-02T11:45:56.063Z,997.84
2023-05-02T11:46:56.267Z,1002.74
2023-05-02T11:47:56.457Z,1014.46
2023-05-02T11:48:55.999Z,1029.81
2023-05-02T11:49:56.360Z,1037.87
2023-05-02T11:50:55.983Z,1037.09
2023-05-02T11:51:55.956Z,1037.22
2023-05-02T11:52:56.041Z,1035.62
2023-05-02T11:53:55.952Z,1032.28
2023-05-02T11:54:55.989Z,1030.11
2023-05-02T11:55:56.081Z,1029.48
2023-05-02T11:56:56.027Z,1025.72
2023-05-02T11:57:55.892Z,1017.91
2023-05-02T11:58:55.894Z,1007.25
2023-05-02T11:59:55.905Z,992.86
2023-05-02T12:00:55.879Z,980.42
2023-05-02T12:01:55.874Z,973.14
2023-05-02T12:02:55.952Z,976.77
2023-05-02T12:03:55.885Z,985.60
2023-05-02T12:04:55.830Z,992.61
2023-05-02T12:05:56.030Z,999.19
2023-05-02T12:06:55.906Z,1013.42
2023-05-02T12:07:55.784Z,1026.33
2023-05-02T12:08:55.812Z,1033.56
2023-05-02T12:09:55.796Z,1035.55
2023-05-02T12:10:55.742Z,1037.59
2023-05-02T12:11:55.892Z,1039.60
2023-05-02T12:12:55.729Z,1038.38
2023-05-02T12:13:55.740Z,1035.55
2023-05-02T12:14:55.769Z,1033.35
2023-05-02T12:15:55.882Z,1032.27
2023-05-02T12:16:55.752Z,1031.61
2023-05-02T12:17:55.739Z,1031.64
2023-05-02T12:18:55.691Z,1032.40
2023-05-02T12:19:55.661Z,1035.63
2023-05-02T12:20:55.768Z,1036.82
2023-05-02T12:21:55.947Z,1032.96
2023-05-02T12:22:55.660Z,1032.55
2023-05-02T12:24:02.991Z,1036.52
2023-05-02T12:25:04.762Z,1037.30